Time;durP1;ratioP1;P1;durP2;ratioP2;P2;SDS_P1;SDS_P2;PMS_P1;PMS_P2;Temp;Humidity;BMP_temperature;BMP_pressure;BME280_temperature;BME280_humidity;BME280_pressure;Samples;Min_cycle;Max_cycle;Signal;HPM_P1;HPM_P2
2023/08/14 00:02:02;;;;;;;3.78;2.05;;;19.60;99.90;;;;;;5032833;28;20033;-86
2023/08/14 00:04:27;;;;;;;3.22;1.42;;;19.60;99.90;;;;;;5032733;28;20032;-86
2023/08/14 00:06:54;;;;;;;5.43;1.90;;;19.60;99.90;;;;;;5031846;28;20398;-86
2023/08/14 00:09:20;;;;;;;5.90;2.20;;;19.60;99.90;;;;;;5032308;28;20033;-87
2023/08/14 00:11:46;;;;;;;5.47;1.73;;;19.60;99.90;;;;;;5033074;28;20056;-88
2023/08/14 00:14:11;;;;;;;5.55;2.00;;;19.60;99.90;;;;;;5032629;28;20134;-87
2023/08/14 00:16:37;;;;;;;9.10;3.03;;;19.60;99.90;;;;;;5031489;28;20056;-86
2023/08/14 00:19:03;;;;;;;4.63;2.15;;;19.50;99.90;;;;;;5032130;28;20033;-88
2023/08/14 00:21:28;;;;;;;3.35;1.92;;;19.50;99.90;;;;;;5033224;28;20526;-87
2023/08/14 00:23:54;;;;;;;5.25;1.85;;;19.50;99.90;;;;;;5048334;28;20035;-87
2023/08/14 00:26:20;;;;;;;6.07;2.22;;;19.50;99.90;;;;;;5031472;28;20034;-86
2023/08/14 00:28:45;;;;;;;4.13;1.67;;;19.50;99.90;;;;;;5033942;28;20036;-87
2023/08/14 00:31:11;;;;;;;9.30;1.90;;;19.50;99.90;;;;;;5032782;28;20075;-85
2023/08/14 00:33:37;;;;;;;4.88;1.45;;;19.50;99.90;;;;;;5031791;28;20029;-85
2023/08/14 00:36:05;;;;;;;3.92;1.55;;;19.40;99.90;;;;;;5031435;28;20037;-84
2023/08/14 00:38:31;;;;;;;7.68;1.98;;;19.40;99.90;;;;;;5046783;28;20072;-86
2023/08/14 00:40:57;;;;;;;2.75;1.50;;;19.40;99.90;;;;;;5031371;28;20984;-85
2023/08/14 00:43:23;;;;;;;2.70;1.55;;;19.40;99.90;;;;;;5030639;28;20033;-86
2023/08/14 00:45:51;;;;;;;3.03;1.23;;;19.40;99.90;;;;;;5030904;28;20060;-86
2023/08/14 00:48:18;;;;;;;2.80;1.63;;;19.40;99.90;;;;;;5046150;28;20545;-85
2023/08/14 00:50:44;;;;;;;9.10;1.80;;;19.40;99.90;;;;;;5031047;28;20033;-85
2023/08/14 00:53:11;;;;;;;2.75;1.40;;;19.40;99.90;;;;;;5031668;28;20033;-85
2023/08/14 00:55:37;;;;;;;6.93;2.15;;;19.50;99.90;;;;;;5032107;28;20033;-86
2023/08/14 00:58:04;;;;;;;3.03;1.80;;;19.50;99.90;;;;;;5031437;28;20482;-86
2023/08/14 01:00:32;;;;;;;7.38;2.05;;;19.50;99.90;;;;;;5031217;28;20033;-86
2023/08/14 01:02:58;;;;;;;3.92;2.15;;;19.50;99.90;;;;;;5031306;28;20034;-85
2023/08/14 01:05:23;;;;;;;5.93;1.58;;;19.50;99.90;;;;;;5030130;28;20028;-87
2023/08/14 01:07:49;;;;;;;3.40;1.67;;;19.50;99.90;;;;;;5031677;28;20065;-86
2023/08/14 01:10:15;;;;;;;4.05;1.90;;;19.50;99.90;;;;;;5031896;28;20030;-86
2023/08/14 01:12:56;;;;;;;2.75;1.83;;;19.40;99.90;;;;;;5031837;28;20049;-86
2023/08/14 01:15:34;;;;;;;3.00;1.70;;;19.30;99.90;;;;;;5029755;28;20029;-84
2023/08/14 01:18:01;;;;;;;4.13;2.03;;;19.30;99.90;;;;;;5029504;28;20029;-85
2023/08/14 01:20:33;;;;;;;4.03;2.10;;;19.20;99.90;;;;;;5031830;28;20037;-86
2023/08/14 01:23:33;;;;;;;6.50;1.95;;;19.10;99.90;;;;;;5032076;28;20036;-86
2023/08/14 01:26:00;;;;;;;3.63;1.85;;;19.10;99.90;;;;;;5024079;28;20517;-86
2023/08/14 01:28:28;;;;;;;6.32;1.85;;;19.10;99.90;;;;;;5034540;28;20033;-85
2023/08/14 01:30:54;;;;;;;10.10;1.85;;;19.10;99.90;;;;;;5035427;28;20028;-86
2023/08/14 01:33:20;;;;;;;3.47;1.77;;;19.10;99.90;;;;;;5034577;28;20402;-86
2023/08/14 01:36:00;;;;;;;5.57;2.22;;;19.10;99.90;;;;;;5035695;28;20040;-86
2023/08/14 01:38:34;;;;;;;4.95;2.28;;;19.10;99.90;;;;;;5033248;28;20092;-85
2023/08/14 01:41:14;;;;;;;5.68;1.85;;;19.20;99.90;;;;;;5035436;28;20053;-85
2023/08/14 01:43:44;;;;;;;7.78;1.85;;;19.20;99.90;;;;;;5035661;28;20024;-85
2023/08/14 01:46:11;;;;;;;4.35;1.58;;;19.10;99.90;;;;;;5035350;28;20278;-86
2023/08/14 01:48:38;;;;;;;4.63;2.22;;;19.20;99.90;;;;;;5035519;28;20026;-85
2023/08/14 01:51:05;;;;;;;6.28;1.48;;;19.10;99.90;;;;;;5033995;28;20033;-85
2023/08/14 01:53:34;;;;;;;2.90;1.58;;;19.20;99.90;;;;;;5035147;28;20075;-85
2023/08/14 01:55:59;;;;;;;5.60;1.88;;;19.10;99.90;;;;;;5035509;28;20029;-86
2023/08/14 01:58:25;;;;;;;5.20;1.60;;;19.00;99.90;;;;;;5034380;28;20056;-86
2023/08/14 02:00:50;;;;;;;3.33;1.95;;;19.00;99.90;;;;;;5035263;28;20036;-85
2023/08/14 02:03:16;;;;;;;3.40;1.65;;;18.90;99.90;;;;;;5033931;28;20029;-85
2023/08/14 02:05:42;;;;;;;4.72;1.73;;;18.80;99.90;;;;;;5035557;28;20310;-86
2023/08/14 02:08:07;;;;;;;3.92;1.73;;;18.80;99.90;;;;;;5035136;28;20033;-86
2023/08/14 02:10:33;;;;;;;10.75;2.00;;;18.70;99.90;;;;;;5033613;28;20055;-85
2023/08/14 02:12:59;;;;;;;3.92;1.55;;;18.60;99.90;;;;;;5034288;28;20085;-86
2023/08/14 02:15:24;;;;;;;15.18;1.85;;;18.60;99.90;;;;;;5033501;28;20026;-86
2023/08/14 02:17:50;;;;;;;3.05;1.60;;;18.70;99.90;;;;;;5034265;28;20042;-85
2023/08/14 02:20:16;;;;;;;7.57;1.55;;;18.70;99.90;;;;;;5033640;28;20116;-86
2023/08/14 02:22:41;;;;;;;8.50;3.30;;;18.80;99.90;;;;;;5034000;28;20032;-86
2023/08/14 02:25:07;;;;;;;7.15;1.50;;;18.80;99.90;;;;;;5032693;28;20033;-85
2023/08/14 02:27:33;;;;;;;4.10;1.55;;;18.80;99.90;;;;;;5033228;28;20027;-85
2023/08/14 02:29:58;;;;;;;2.97;1.52;;;18.70;99.90;;;;;;5033793;28;20075;-86
2023/08/14 02:32:24;;;;;;;2.92;1.85;;;18.60;99.90;;;;;;5034181;28;20025;-85
2023/08/14 02:34:55;;;;;;;3.75;1.70;;;18.50;99.90;;;;;;5034693;28;20060;-86
2023/08/14 02:37:21;;;;;;;4.35;1.77;;;18.40;99.90;;;;;;5034759;28;20034;-86
2023/08/14 02:39:47;;;;;;;4.22;1.30;;;18.30;99.90;;;;;;5033641;28;20044;-88
2023/08/14 02:42:15;;;;;;;3.92;1.65;;;18.30;99.90;;;;;;5034301;28;20375;-88
2023/08/14 02:44:40;;;;;;;3.42;1.58;;;18.20;99.90;;;;;;5040037;28;20029;-88
2023/08/14 02:47:06;;;;;;;5.13;1.70;;;18.20;99.90;;;;;;5055131;28;20083;-88
2023/08/14 02:49:32;;;;;;;4.80;1.60;;;18.10;99.90;;;;;;5054935;28;20033;-88
2023/08/14 02:51:57;;;;;;;5.40;1.80;;;18.20;99.90;;;;;;5054189;28;20104;-85
2023/08/14 02:54:23;;;;;;;4.95;1.85;;;18.30;99.90;;;;;;5053750;28;20025;-87
2023/08/14 02:56:49;;;;;;;4.18;1.23;;;18.30;99.90;;;;;;5053378;28;20029;-86
2023/08/14 02:59:15;;;;;;;5.45;1.35;;;18.30;99.90;;;;;;5054311;28;20044;-87
2023/08/14 03:01:41;;;;;;;5.25;1.40;;;18.40;99.90;;;;;;5054489;28;20075;-87
2023/08/14 03:04:07;;;;;;;8.85;1.65;;;18.40;99.90;;;;;;5054302;28;20405;-87
2023/08/14 03:06:33;;;;;;;9.27;2.03;;;18.40;99.90;;;;;;5054194;28;20060;-87
2023/08/14 03:09:00;;;;;;;3.10;1.70;;;18.40;99.90;;;;;;5054402;28;20056;-87
2023/08/14 03:11:26;;;;;;;4.22;1.73;;;18.40;99.90;;;;;;5053116;28;20516;-87
2023/08/14 03:13:51;;;;;;;3.88;1.50;;;18.40;99.90;;;;;;5052952;28;20084;-89
2023/08/14 03:16:17;;;;;;;3.78;1.92;;;18.40;99.90;;;;;;5054702;28;20021;-88
2023/08/14 03:18:43;;;;;;;3.80;1.25;;;18.30;99.90;;;;;;5053430;28;20036;-89
2023/08/14 03:21:09;;;;;;;3.15;1.90;;;18.30;99.90;;;;;;5054495;28;20477;-88
2023/08/14 03:23:35;;;;;;;3.03;1.50;;;18.20;99.90;;;;;;5054917;28;20033;-88
2023/08/14 03:26:01;;;;;;;4.82;2.05;;;18.10;99.90;;;;;;5052419;28;20073;-84
2023/08/14 03:28:27;;;;;;;3.08;1.50;;;18.00;99.90;;;;;;5053101;28;20548;-85
2023/08/14 03:30:53;;;;;;;4.57;2.10;;;18.00;99.90;;;;;;5051440;28;20025;-87
2023/08/14 03:33:18;;;;;;;2.50;1.20;;;17.90;99.90;;;;;;5052929;28;20035;-85
2023/08/14 03:35:44;;;;;;;4.45;1.67;;;17.90;99.90;;;;;;5052629;28;20028;-85
2023/08/14 03:38:10;;;;;;;4.00;1.90;;;17.80;99.90;;;;;;5051991;28;20102;-86
2023/08/14 03:40:35;;;;;;;3.28;1.50;;;17.80;99.90;;;;;;5054052;28;20033;-88
2023/08/14 03:43:02;;;;;;;2.72;1.48;;;17.80;99.90;;;;;;5055210;28;20025;-87
2023/08/14 03:45:27;;;;;;;3.85;1.75;;;17.80;99.90;;;;;;5048365;28;20032;-87
2023/08/14 03:47:53;;;;;;;3.45;1.52;;;17.80;99.90;;;;;;5052434;28;20029;-88
2023/08/14 03:50:19;;;;;;;3.30;1.63;;;17.80;99.90;;;;;;5049187;28;20032;-86
2023/08/14 03:52:44;;;;;;;5.00;1.08;;;17.70;99.90;;;;;;5036302;28;20029;-86
2023/08/14 03:55:10;;;;;;;5.82;1.55;;;17.80;99.90;;;;;;5030228;28;20037;-86
2023/08/14 03:57:36;;;;;;;3.40;1.52;;;17.80;99.90;;;;;;5030547;28;20620;-85
2023/08/14 04:00:03;;;;;;;4.60;1.58;;;17.80;99.90;;;;;;5031829;28;20044;-85
2023/08/14 04:02:28;;;;;;;3.42;1.30;;;17.80;99.90;;;;;;5031844;28;20108;-85
2023/08/14 04:04:54;;;;;;;5.10;1.60;;;17.80;99.90;;;;;;5031068;28;20558;-86
2023/08/14 04:07:20;;;;;;;4.57;1.30;;;17.80;99.90;;;;;;5031681;28;20400;-84
2023/08/14 04:09:45;;;;;;;7.15;1.70;;;17.80;99.90;;;;;;5031774;28;20026;-85
2023/08/14 04:12:11;;;;;;;4.45;1.80;;;17.90;99.90;;;;;;5029906;28;20056;-85
2023/08/14 04:14:37;;;;;;;7.43;1.83;;;17.90;99.90;;;;;;5031155;28;20021;-83
2023/08/14 04:17:03;;;;;;;6.00;2.38;;;17.90;99.90;;;;;;5030842;28;20033;-82
2023/08/14 04:19:29;;;;;;;2.58;1.60;;;17.90;99.90;;;;;;5029471;28;20040;-83
2023/08/14 04:21:55;;;;;;;7.03;2.03;;;18.00;99.90;;;;;;5030633;28;20637;-82
2023/08/14 04:24:20;;;;;;;8.25;2.65;;;18.00;99.90;;;;;;5030477;28;20415;-79
2023/08/14 04:26:46;;;;;;;3.55;1.67;;;18.10;99.90;;;;;;5030493;28;20037;-82
2023/08/14 04:29:12;;;;;;;5.05;1.50;;;18.20;99.90;;;;;;5030568;28;20104;-81
2023/08/14 04:31:39;;;;;;;5.38;1.55;;;18.30;99.90;;;;;;5030144;28;20022;-83
2023/08/14 04:34:05;;;;;;;4.35;1.42;;;18.30;99.90;;;;;;5028948;28;20529;-82
2023/08/14 04:36:32;;;;;;;2.58;1.58;;;18.40;99.90;;;;;;5029976;28;20036;-81
2023/08/14 04:38:58;;;;;;;6.07;1.50;;;18.50;99.90;;;;;;5030717;28;20092;-83
2023/08/14 04:41:25;;;;;;;5.30;1.63;;;18.60;99.90;;;;;;5029023;28;20405;-84
2023/08/14 04:43:51;;;;;;;5.03;1.67;;;18.60;99.90;;;;;;5031462;28;20111;-85
2023/08/14 04:46:33;;;;;;;4.28;1.75;;;18.70;99.90;;;;;;5033475;28;20486;-84
2023/08/14 04:48:59;;;;;;;5.32;1.75;;;18.90;99.90;;;;;;5030115;28;20595;-83
2023/08/14 04:51:26;;;;;;;3.95;1.63;;;19.00;99.90;;;;;;5028706;28;20115;-81
2023/08/14 04:53:53;;;;;;;4.80;1.80;;;19.10;99.90;;;;;;5044958;28;20512;-83
2023/08/14 04:56:18;;;;;;;4.72;1.80;;;19.30;99.90;;;;;;5049978;28;20029;-83
2023/08/14 04:58:44;;;;;;;2.35;1.45;;;19.40;99.90;;;;;;5049870;28;20048;-83
2023/08/14 05:01:10;;;;;;;3.90;1.60;;;19.50;99.90;;;;;;5048487;28;20035;-83
2023/08/14 05:03:36;;;;;;;6.45;1.75;;;19.70;99.90;;;;;;5049202;28;20234;-83
2023/08/14 05:06:01;;;;;;;6.00;2.05;;;19.70;99.90;;;;;;5050125;28;20029;-83
2023/08/14 05:08:27;;;;;;;6.32;1.80;;;19.90;99.90;;;;;;5047693;28;20021;-81
2023/08/14 05:10:54;;;;;;;8.13;2.03;;;20.00;99.90;;;;;;5049894;28;20107;-81
2023/08/14 05:13:20;;;;;;;4.60;1.90;;;20.20;99.90;;;;;;5048245;28;20088;-84
2023/08/14 05:15:47;;;;;;;4.55;1.60;;;20.30;99.90;;;;;;5049332;28;20068;-83
2023/08/14 05:18:13;;;;;;;5.35;1.80;;;20.40;99.90;;;;;;5049777;28;20021;-84
2023/08/14 05:20:39;;;;;;;3.65;1.60;;;20.60;99.90;;;;;;5050790;28;20036;-83
2023/08/14 05:23:05;;;;;;;5.45;1.73;;;20.80;99.90;;;;;;5050934;28;20100;-82
2023/08/14 05:25:31;;;;;;;3.83;1.58;;;21.00;99.90;;;;;;5051008;28;20033;-83
2023/08/14 05:27:57;;;;;;;9.63;1.80;;;21.40;99.90;;;;;;5050548;28;20468;-83
2023/08/14 05:30:22;;;;;;;2.83;1.70;;;21.80;99.90;;;;;;5050252;28;20123;-83
2023/08/14 05:32:48;;;;;;;2.72;1.65;;;22.10;99.90;;;;;;5049502;28;20017;-82
2023/08/14 05:35:16;;;;;;;8.93;1.77;;;22.50;99.90;;;;;;5048817;28;20132;-83
2023/08/14 05:37:42;;;;;;;2.63;1.20;;;23.00;99.90;;;;;;5049480;28;20021;-82
2023/08/14 05:40:10;;;;;;;3.95;2.53;;;23.50;99.90;;;;;;5049352;28;20037;-83
2023/08/14 05:42:36;;;;;;;10.52;3.40;;;23.90;99.90;;;;;;5046955;28;20026;-83
2023/08/14 05:45:02;;;;;;;6.60;2.47;;;24.10;99.90;;;;;;5050486;28;20115;-83
2023/08/14 05:47:28;;;;;;;8.15;2.38;;;24.30;99.90;;;;;;5050096;28;20096;-81
2023/08/14 05:49:53;;;;;;;7.40;2.42;;;24.60;99.80;;;;;;5050197;28;20112;-83
2023/08/14 05:52:19;;;;;;;5.72;1.60;;;25.10;98.60;;;;;;5050525;28;20099;-83
2023/08/14 05:54:45;;;;;;;3.60;1.80;;;25.70;96.50;;;;;;5050110;28;20527;-83
2023/08/14 05:57:10;;;;;;;7.70;2.58;;;26.30;94.30;;;;;;5049442;28;20561;-83
2023/08/14 05:59:36;;;;;;;4.47;1.98;;;26.80;92.50;;;;;;5049440;28;20425;-82
2023/08/14 06:02:02;;;;;;;4.53;2.08;;;27.20;90.90;;;;;;5049535;28;20029;-84
2023/08/14 06:04:27;;;;;;;4.75;2.00;;;27.60;85.70;;;;;;5049322;28;20043;-83
2023/08/14 06:06:53;;;;;;;2.72;1.35;;;27.90;81.70;;;;;;5048123;28;20378;-82
2023/08/14 06:09:19;;;;;;;5.45;2.03;;;28.10;78.90;;;;;;5048412;28;20554;-84
2023/08/14 06:11:45;;;;;;;9.55;1.70;;;28.50;76.00;;;;;;5049935;28;20032;-84
2023/08/14 06:14:11;;;;;;;3.55;1.27;;;29.20;73.00;;;;;;5050164;28;20513;-83
2023/08/14 06:16:36;;;;;;;4.05;1.55;;;29.90;68.60;;;;;;5054015;28;20040;-83
2023/08/14 06:19:02;;;;;;;2.67;1.30;;;30.50;65.10;;;;;;5052444;28;20040;-84
2023/08/14 06:21:28;;;;;;;6.80;1.90;;;31.00;62.30;;;;;;5052693;28;20032;-84
2023/08/14 06:23:53;;;;;;;4.07;1.30;;;31.40;60.40;;;;;;5052666;28;20119;-84
2023/08/14 06:26:19;;;;;;;5.53;1.30;;;32.00;57.20;;;;;;5053667;28;20482;-83
2023/08/14 06:28:45;;;;;;;3.20;1.08;;;32.60;54.80;;;;;;5052813;28;20033;-84
2023/08/14 06:31:10;;;;;;;2.95;1.40;;;33.20;51.90;;;;;;5052335;28;20104;-84
2023/08/14 06:33:36;;;;;;;1.63;0.98;;;33.50;46.40;;;;;;5052247;28;20128;-85
2023/08/14 06:36:02;;;;;;;2.63;1.40;;;33.80;44.50;;;;;;5052907;28;20028;-85
2023/08/14 06:38:27;;;;;;;6.43;1.60;;;34.40;43.00;;;;;;5053145;28;20041;-84
2023/08/14 06:40:53;;;;;;;9.05;1.60;;;34.60;41.60;;;;;;5053292;28;20060;-85
2023/08/14 06:43:20;;;;;;;2.67;1.20;;;35.10;41.00;;;;;;5052367;28;20460;-84
2023/08/14 06:45:47;;;;;;;9.77;1.40;;;35.60;38.60;;;;;;5052386;28;20071;-85
2023/08/14 06:48:14;;;;;;;2.50;1.20;;;35.90;37.10;;;;;;5052256;28;20032;-83
2023/08/14 06:50:40;;;;;;;3.92;1.13;;;36.00;34.90;;;;;;5051940;28;20026;-85
2023/08/14 06:53:05;;;;;;;5.85;1.23;;;36.10;35.80;;;;;;5053364;28;20036;-84
2023/08/14 06:55:31;;;;;;;7.85;0.93;;;36.20;34.70;;;;;;5052244;28;20513;-84
2023/08/14 06:57:56;;;;;;;1.83;1.10;;;36.20;35.00;;;;;;5053215;28;20025;-84
2023/08/14 07:00:22;;;;;;;6.10;1.35;;;36.20;35.60;;;;;;5051907;28;20032;-84
2023/08/14 07:02:48;;;;;;;3.55;1.27;;;36.00;35.30;;;;;;5051551;28;20651;-85
2023/08/14 07:05:14;;;;;;;4.60;1.23;;;36.20;32.50;;;;;;5051675;28;20029;-85
2023/08/14 07:07:40;;;;;;;3.13;1.02;;;36.20;31.80;;;;;;5053459;28;20025;-85
2023/08/14 07:10:06;;;;;;;2.33;1.17;;;35.50;32.10;;;;;;5051826;28;20051;-85
2023/08/14 07:12:32;;;;;;;5.45;1.50;;;35.70;33.40;;;;;;5052003;28;20094;-84
2023/08/14 07:15:00;;;;;;;10.13;1.08;;;35.90;34.20;;;;;;5053234;28;20028;-84
2023/08/14 07:17:26;;;;;;;1.77;1.20;;;36.00;33.50;;;;;;5052944;28;20363;-84
2023/08/14 07:19:52;;;;;;;2.25;1.23;;;36.20;32.10;;;;;;5052165;28;20041;-83
2023/08/14 07:22:17;;;;;;;1.70;1.00;;;36.30;33.10;;;;;;5051295;28;20021;-84
2023/08/14 07:24:44;;;;;;;4.45;1.20;;;36.10;33.70;;;;;;5052404;28;20025;-84
2023/08/14 07:27:09;;;;;;;2.33;1.60;;;36.10;33.60;;;;;;5051287;28;20029;-85
2023/08/14 07:29:35;;;;;;;3.58;1.38;;;36.10;33.20;;;;;;5052586;28;20032;-85
2023/08/14 07:32:01;;;;;;;4.30;1.50;;;36.30;33.00;;;;;;5052355;28;20029;-84
2023/08/14 07:34:26;;;;;;;1.95;1.13;;;36.40;34.00;;;;;;5051440;28;20474;-84
2023/08/14 07:36:52;;;;;;;1.98;1.23;;;36.60;32.10;;;;;;5051639;28;20025;-84
2023/08/14 07:39:18;;;;;;;2.00;1.23;;;36.70;32.00;;;;;;5051259;28;20120;-84
2023/08/14 07:41:43;;;;;;;4.32;1.80;;;36.90;32.70;;;;;;5052224;28;20482;-84
2023/08/14 07:44:09;;;;;;;2.08;1.10;;;37.30;32.00;;;;;;5050962;28;20478;-85
2023/08/14 07:46:34;;;;;;;9.10;1.88;;;37.20;32.00;;;;;;5050343;28;20032;-82
2023/08/14 07:49:00;;;;;;;5.55;1.50;;;37.30;31.70;;;;;;5051093;28;20036;-83
2023/08/14 07:51:26;;;;;;;7.03;2.38;;;37.50;32.70;;;;;;5049426;28;20025;-84
2023/08/14 07:53:52;;;;;;;6.90;1.73;;;37.60;32.20;;;;;;5050392;28;20052;-84
2023/08/14 07:56:18;;;;;;;7.82;2.15;;;37.90;32.90;;;;;;5050519;28;20025;-84
2023/08/14 07:58:44;;;;;;;3.97;1.45;;;38.10;32.50;;;;;;5050379;28;20115;-84
2023/08/14 08:01:09;;;;;;;2.35;1.10;;;38.40;31.20;;;;;;5050865;28;20060;-84
2023/08/14 08:03:35;;;;;;;2.05;1.50;;;38.70;30.80;;;;;;5051717;28;20025;-83
2023/08/14 08:06:01;;;;;;;4.60;1.70;;;38.80;30.90;;;;;;5050302;28;20067;-84
2023/08/14 08:08:26;;;;;;;2.72;1.75;;;38.80;30.20;;;;;;5050530;28;20037;-85
2023/08/14 08:10:52;;;;;;;2.80;1.27;;;38.40;31.20;;;;;;5050662;28;20072;-82
2023/08/14 08:13:17;;;;;;;4.80;1.48;;;38.30;31.30;;;;;;5051168;28;20053;-83
2023/08/14 08:15:43;;;;;;;7.78;1.35;;;38.40;31.60;;;;;;5049159;28;20500;-85
2023/08/14 08:18:09;;;;;;;6.05;1.65;;;38.70;30.20;;;;;;5050752;28;20024;-77
2023/08/14 08:20:35;;;;;;;3.40;1.38;;;39.00;31.10;;;;;;5050744;28;20037;-83
2023/08/14 08:23:00;;;;;;;6.97;1.20;;;38.80;32.00;;;;;;5049187;28;20025;-82
2023/08/14 08:25:26;;;;;;;7.45;1.50;;;38.80;32.70;;;;;;5050479;28;20053;-83
2023/08/14 08:27:52;;;;;;;3.22;1.77;;;38.80;31.70;;;;;;5050574;28;20101;-82
2023/08/14 08:30:17;;;;;;;5.30;1.65;;;38.70;32.10;;;;;;5051126;28;20029;-83
2023/08/14 08:32:43;;;;;;;3.22;1.70;;;38.80;32.10;;;;;;5049954;28;20547;-83
2023/08/14 08:35:09;;;;;;;3.67;1.60;;;38.80;32.20;;;;;;5049839;28;20025;-81
2023/08/14 08:37:34;;;;;;;3.72;1.55;;;39.10;31.50;;;;;;5048458;28;20185;-82
2023/08/14 08:40:00;;;;;;;4.57;1.77;;;39.20;30.60;;;;;;5048732;28;20041;-82
2023/08/14 08:42:27;;;;;;;3.20;1.70;;;39.20;31.60;;;;;;5047092;28;20482;-82
2023/08/14 08:44:55;;;;;;;7.22;1.55;;;39.40;30.90;;;;;;5047472;28;20033;-82
2023/08/14 08:47:26;;;;;;;2.80;1.38;;;39.40;29.80;;;;;;5047742;28;20025;-83
2023/08/14 08:49:52;;;;;;;13.57;2.28;;;39.30;30.20;;;;;;5048886;28;20025;-82
2023/08/14 08:52:19;;;;;;;3.28;1.55;;;39.30;31.10;;;;;;5031540;28;20490;-83
2023/08/14 08:54:46;;;;;;;5.13;1.77;;;39.30;30.00;;;;;;5048319;28;20025;-83
2023/08/14 08:57:12;;;;;;;4.50;1.70;;;39.00;30.40;;;;;;5049907;28;20033;-82
2023/08/14 08:59:40;;;;;;;5.32;1.30;;;38.90;31.50;;;;;;5050348;28;20036;-82
2023/08/14 09:02:07;;;;;;;4.03;1.60;;;38.90;30.40;;;;;;5048571;28;20025;-83
2023/08/14 09:04:33;;;;;;;1.52;1.15;;;39.20;29.80;;;;;;5048877;28;20138;-82
2023/08/14 09:06:59;;;;;;;8.23;1.17;;;39.10;29.30;;;;;;5048674;28;20068;-82
2023/08/14 09:09:25;;;;;;;3.17;1.25;;;39.50;28.70;;;;;;5049366;28;20489;-81
2023/08/14 09:11:51;;;;;;;2.47;1.48;;;39.80;27.70;;;;;;5049130;28;20029;-81
2023/08/14 09:14:17;;;;;;;4.72;1.42;;;39.50;28.00;;;;;;5049893;28;20505;-81
2023/08/14 09:16:44;;;;;;;5.90;1.30;;;40.00;27.50;;;;;;5049966;28;20104;-81
2023/08/14 09:19:13;;;;;;;3.22;1.17;;;39.80;27.00;;;;;;5050062;28;20029;-83
2023/08/14 09:21:42;;;;;;;2.78;1.60;;;39.60;27.50;;;;;;5049890;28;20025;-82
2023/08/14 09:24:11;;;;;;;3.90;1.45;;;39.50;27.50;;;;;;5048874;28;20119;-83
2023/08/14 09:26:37;;;;;;;5.70;1.75;;;39.40;27.60;;;;;;5049594;28;20025;-82
2023/08/14 09:29:03;;;;;;;5.68;2.42;;;39.40;28.60;;;;;;5049859;28;20409;-81
2023/08/14 09:31:31;;;;;;;10.90;1.65;;;39.10;27.10;;;;;;5049730;28;20052;-82
2023/08/14 09:33:57;;;;;;;4.47;1.73;;;38.90;28.10;;;;;;5049217;28;20031;-81
2023/08/14 09:36:23;;;;;;;9.43;1.73;;;39.00;28.70;;;;;;5048502;28;20031;-81
2023/08/14 09:38:52;;;;;;;9.10;1.80;;;39.00;28.60;;;;;;5049510;28;20090;-82
2023/08/14 09:41:19;;;;;;;5.10;1.83;;;39.10;29.20;;;;;;5049500;28;20112;-80
2023/08/14 09:43:45;;;;;;;9.00;1.00;;;39.20;28.30;;;;;;5049379;28;20026;-83
2023/08/14 09:46:13;;;;;;;4.47;1.75;;;39.20;28.60;;;;;;5050092;28;20029;-82
2023/08/14 09:48:44;;;;;;;6.90;1.42;;;39.30;28.30;;;;;;5049664;28;20120;-82
2023/08/14 09:51:14;;;;;;;6.18;1.60;;;39.50;29.00;;;;;;5053628;28;20020;-82
2023/08/14 09:53:50;;;;;;;9.50;1.30;;;39.10;28.70;;;;;;5053905;28;20043;-82
2023/08/14 09:56:17;;;;;;;5.35;1.45;;;39.20;29.10;;;;;;5053315;28;20029;-83
2023/08/14 09:58:43;;;;;;;8.95;1.48;;;39.20;28.90;;;;;;5053442;28;20040;-83
2023/08/14 10:01:12;;;;;;;3.28;1.55;;;39.40;28.90;;;;;;5053114;28;20120;-83
2023/08/14 10:03:40;;;;;;;6.75;1.50;;;39.40;28.80;;;;;;5052023;28;20448;-81
2023/08/14 10:06:09;;;;;;;5.90;1.85;;;39.20;28.80;;;;;;5052602;28;20028;-83
2023/08/14 10:08:36;;;;;;;5.68;1.73;;;39.20;29.40;;;;;;5052126;28;20029;-82
2023/08/14 10:11:07;;;;;;;4.43;1.50;;;39.10;29.40;;;;;;5052072;28;20028;-82
2023/08/14 10:13:40;;;;;;;9.60;1.30;;;39.10;29.60;;;;;;5051795;28;20060;-81
2023/08/14 10:16:09;;;;;;;5.40;1.40;;;39.00;28.80;;;;;;5053297;28;20560;-81
2023/08/14 10:18:39;;;;;;;5.82;1.50;;;38.40;28.60;;;;;;5052129;28;20036;-82
2023/08/14 10:21:09;;;;;;;1.90;1.15;;;36.80;29.70;;;;;;5053637;28;20028;-82
2023/08/14 10:23:38;;;;;;;3.97;1.80;;;35.90;31.20;;;;;;5052292;28;20398;-82
2023/08/14 10:26:05;;;;;;;3.25;1.27;;;35.40;31.80;;;;;;5053451;28;20036;-82
2023/08/14 10:28:32;;;;;;;1.92;1.20;;;35.10;33.20;;;;;;5053137;28;20025;-82
2023/08/14 10:30:58;;;;;;;4.07;1.52;;;35.10;33.00;;;;;;5051362;28;20110;-82
2023/08/14 10:33:25;;;;;;;2.10;1.00;;;34.80;32.90;;;;;;5052701;28;20049;-82
2023/08/14 10:35:55;;;;;;;3.80;1.25;;;34.60;34.20;;;;;;5053166;28;20075;-82
2023/08/14 10:38:24;;;;;;;5.10;1.05;;;34.60;34.50;;;;;;5052001;28;20036;-82
2023/08/14 10:41:03;;;;;;;5.05;1.50;;;34.50;34.10;;;;;;5052182;28;20089;-81
2023/08/14 10:43:29;;;;;;;2.55;1.42;;;34.40;34.20;;;;;;5052137;28;20037;-82
2023/08/14 10:45:55;;;;;;;6.82;1.40;;;34.20;34.60;;;;;;5050979;28;20391;-82
2023/08/14 10:48:21;;;;;;;2.60;1.35;;;33.90;35.80;;;;;;5052458;28;20032;-81
2023/08/14 10:50:59;;;;;;;3.33;1.27;;;33.80;35.60;;;;;;5051986;28;20500;-81
2023/08/14 10:53:25;;;;;;;3.80;1.50;;;33.70;35.20;;;;;;5052775;28;20047;-82
2023/08/14 10:55:52;;;;;;;4.78;2.03;;;33.30;35.20;;;;;;5052909;28;20477;-82
2023/08/14 10:58:35;;;;;;;8.80;1.80;;;32.90;35.90;;;;;;5052294;28;20444;-82
2023/08/14 11:01:06;;;;;;;4.88;1.63;;;32.50;37.80;;;;;;5052513;28;20044;-83
2023/08/14 11:03:54;;;;;;;11.27;2.25;;;32.20;37.90;;;;;;5051509;28;20017;-81
2023/08/14 11:06:28;;;;;;;8.35;1.55;;;31.90;38.20;;;;;;5052624;28;20112;-82
2023/08/14 11:08:59;;;;;;;7.80;2.50;;;31.80;38.70;;;;;;5050801;28;20509;-82
2023/08/14 11:11:26;;;;;;;5.97;1.90;;;31.50;38.20;;;;;;5052246;28;20520;-82
2023/08/14 11:13:53;;;;;;;6.72;1.70;;;31.40;38.70;;;;;;5052713;28;20060;-83
2023/08/14 11:16:19;;;;;;;13.02;3.70;;;31.30;38.60;;;;;;5052668;28;20017;-82
2023/08/14 11:18:45;;;;;;;3.90;2.20;;;31.40;39.00;;;;;;5052407;28;20100;-82
2023/08/14 11:21:12;;;;;;;10.43;2.72;;;31.60;39.60;;;;;;5052453;28;20033;-82
2023/08/14 11:23:38;;;;;;;10.35;1.85;;;31.70;39.90;;;;;;5052313;28;20025;-82
2023/08/14 11:26:05;;;;;;;6.30;1.73;;;31.80;38.90;;;;;;5052224;28;20045;-82
2023/08/14 11:28:32;;;;;;;3.95;1.73;;;31.80;40.00;;;;;;5052373;28;20060;-82
2023/08/14 11:30:57;;;;;;;3.65;1.85;;;31.70;39.10;;;;;;5052453;28;20124;-83
2023/08/14 11:33:23;;;;;;;9.02;1.50;;;31.80;39.70;;;;;;5051073;28;20120;-83
2023/08/14 11:35:53;;;;;;;2.15;1.63;;;31.80;38.50;;;;;;5052031;28;20092;-81
2023/08/14 11:38:19;;;;;;;6.35;1.65;;;31.70;38.90;;;;;;5052364;28;20494;-82
2023/08/14 11:40:45;;;;;;;5.57;1.15;;;31.70;38.00;;;;;;5052446;28;20566;-82
2023/08/14 11:43:12;;;;;;;10.15;1.65;;;31.60;39.20;;;;;;5051714;28;20032;-82
2023/08/14 11:45:38;;;;;;;8.93;2.33;;;31.70;38.70;;;;;;5049935;28;20183;-82
2023/08/14 11:48:05;;;;;;;4.68;2.03;;;31.60;39.50;;;;;;5051414;28;20013;-81
2023/08/14 11:50:31;;;;;;;6.93;1.70;;;31.50;38.70;;;;;;5051962;28;20567;-82
2023/08/14 11:52:57;;;;;;;4.55;1.58;;;31.50;38.70;;;;;;5050530;28;20024;-82
2023/08/14 11:55:23;;;;;;;7.28;1.23;;;31.50;38.20;;;;;;5050061;28;20037;-83
2023/08/14 11:57:50;;;;;;;4.50;1.95;;;31.50;39.20;;;;;;5050971;28;20083;-82
2023/08/14 12:00:16;;;;;;;25.35;20.20;;;31.70;39.40;;;;;;5051301;28;20045;-82
2023/08/14 12:02:42;;;;;;;4.45;1.38;;;31.80;39.60;;;;;;5049541;28;20393;-81
2023/08/14 12:05:08;;;;;;;3.45;1.25;;;31.90;38.10;;;;;;5051461;28;20121;-81
2023/08/14 12:07:34;;;;;;;2.28;1.40;;;31.80;38.00;;;;;;5050863;28;20485;-82
2023/08/14 12:10:04;;;;;;;6.88;1.45;;;31.80;39.00;;;;;;5050651;28;20048;-82
2023/08/14 12:12:30;;;;;;;6.45;1.30;;;31.90;39.00;;;;;;5049653;28;20032;-82
2023/08/14 12:14:56;;;;;;;7.32;1.65;;;32.00;37.80;;;;;;5051261;28;20063;-81
2023/08/14 12:17:22;;;;;;;5.60;1.63;;;32.00;37.80;;;;;;5050899;28;20099;-82
2023/08/14 12:19:57;;;;;;;2.72;1.45;;;32.10;38.70;;;;;;5051427;28;20045;-82
2023/08/14 12:22:25;;;;;;;7.70;1.52;;;32.10;38.10;;;;;;5050130;28;20504;-81
2023/08/14 12:24:53;;;;;;;9.00;1.73;;;32.00;38.40;;;;;;5051123;28;20064;-82
2023/08/14 12:27:20;;;;;;;6.75;1.92;;;32.00;38.70;;;;;;5051392;28;20060;-82
2023/08/14 12:29:47;;;;;;;7.85;1.30;;;31.80;37.80;;;;;;5050026;28;20052;-82
2023/08/14 12:32:12;;;;;;;9.73;1.52;;;31.80;38.60;;;;;;5051153;28;20032;-82
2023/08/14 12:34:38;;;;;;;5.38;1.75;;;31.80;39.70;;;;;;5051195;28;20100;-82
2023/08/14 12:37:04;;;;;;;4.22;1.38;;;31.80;37.80;;;;;;5051404;28;20025;-82
2023/08/14 12:39:30;;;;;;;8.95;1.77;;;31.70;37.00;;;;;;5051147;28;20052;-82
2023/08/14 12:41:58;;;;;;;7.40;1.67;;;31.60;38.60;;;;;;5049995;28;20070;-82
2023/08/14 12:44:24;;;;;;;7.03;1.85;;;31.40;38.90;;;;;;5051134;28;20094;-82